createdAt,value
2019-03-24T00:01:06.103Z,8.74
2019-03-24T00:03:36.914Z,8.83
2019-03-24T00:06:07.736Z,8.65
2019-03-24T00:08:38.537Z,8.86
2019-03-24T00:11:09.477Z,8.73
2019-03-24T00:13:40.199Z,8.78
2019-03-24T00:16:11.008Z,8.66
2019-03-24T00:18:41.786Z,8.61
2019-03-24T00:21:12.200Z,8.76
2019-03-24T00:23:43.110Z,8.80
2019-03-24T00:26:14.472Z,8.92
2019-03-24T00:28:45.326Z,8.78
2019-03-24T00:31:16.222Z,8.66
2019-03-24T00:33:46.995Z,8.69
2019-03-24T00:36:18.318Z,8.60
2019-03-24T00:38:49.215Z,8.61
2019-03-24T00:41:19.985Z,8.72
2019-03-24T00:43:50.889Z,8.53
2019-03-24T00:46:22.326Z,8.71
2019-03-24T00:48:53.211Z,8.66
2019-03-24T00:51:24.072Z,8.55
2019-03-24T00:53:54.873Z,8.62
2019-03-24T00:56:25.612Z,8.48
2019-03-24T00:58:57.074Z,8.39
2019-03-24T01:01:27.894Z,8.34
2019-03-24T01:03:58.428Z,8.60
2019-03-24T01:06:29.237Z,8.44
2019-03-24T01:09:00.027Z,8.48
2019-03-24T01:11:30.607Z,8.32
2019-03-24T01:14:01.501Z,8.31
2019-03-24T01:16:32.415Z,8.38
2019-03-24T01:19:04.791Z,8.32
2019-03-24T01:21:38.321Z,8.26
2019-03-24T01:24:09.223Z,8.22
2019-03-24T01:26:40.065Z,8.09
2019-03-24T01:29:15.118Z,7.78
2019-03-24T01:31:45.931Z,8.00
2019-03-24T01:34:16.440Z,8.00
2019-03-24T01:36:47.425Z,7.92
2019-03-24T01:39:18.476Z,7.78
2019-03-24T01:41:50.817Z,7.83
2019-03-24T01:44:21.753Z,7.69
2019-03-24T01:46:52.479Z,7.54
2019-03-24T01:49:25.981Z,7.77
2019-03-24T01:51:59.587Z,7.67
2019-03-24T01:54:30.425Z,7.48
2019-03-24T01:57:01.353Z,7.44
2019-03-24T01:59:32.229Z,7.44
2019-03-24T02:02:03.105Z,7.45
2019-03-24T02:04:36.866Z,7.40
2019-03-24T02:07:07.695Z,7.64
2019-03-24T02:09:38.622Z,7.56
2019-03-24T02:12:10.916Z,7.54
2019-03-24T02:14:41.838Z,7.54
2019-03-24T02:17:13.295Z,7.28
2019-03-24T02:19:44.241Z,7.20
2019-03-24T02:22:15.171Z,7.30
2019-03-24T04:41:55.176Z,5.92
2019-03-24T04:44:25.980Z,6.08
2019-03-24T04:46:56.710Z,5.92
2019-03-24T04:49:27.495Z,5.93
2019-03-24T04:51:58.260Z,5.82
2019-03-24T04:54:29.054Z,5.86
2019-03-24T04:57:00.004Z,5.81
2019-03-24T04:59:30.944Z,5.58
2019-03-24T05:02:01.640Z,5.62
2019-03-24T05:04:32.374Z,5.46
2019-03-24T05:07:03.530Z,5.51
2019-03-24T05:09:34.546Z,5.43
2019-03-24T05:12:05.394Z,5.59
2019-03-24T05:14:36.227Z,5.47
2019-03-24T05:17:07.074Z,5.46
2019-03-24T05:19:37.890Z,5.43
2019-03-24T05:22:08.632Z,5.34
2019-03-24T05:24:39.090Z,5.32
2019-03-24T05:27:09.803Z,5.26
2019-03-24T05:29:40.519Z,5.34
2019-03-24T05:32:10.924Z,5.48
2019-03-24T05:34:41.684Z,5.42
2019-03-24T05:37:12.522Z,5.41
2019-03-24T05:39:43.267Z,5.36
2019-03-24T05:42:14.090Z,5.32
2019-03-24T05:44:44.830Z,5.38
2019-03-24T05:47:15.654Z,5.32
2019-03-24T05:49:46.753Z,5.34
2019-03-24T05:52:17.544Z,5.32
2019-03-24T05:54:48.390Z,5.40
2019-03-24T05:57:19.209Z,5.39
2019-03-24T05:59:49.638Z,5.47
2019-03-24T06:02:20.516Z,5.34
2019-03-24T06:04:51.216Z,5.32
2019-03-24T06:07:21.933Z,5.42
2019-03-24T06:09:52.780Z,5.28
2019-03-24T06:12:23.613Z,5.51
2019-03-24T06:14:54.562Z,5.43
2019-03-24T06:17:25.438Z,5.57
2019-03-24T06:19:56.244Z,5.60
2019-03-24T06:22:27.066Z,5.67
2019-03-24T06:24:57.820Z,5.51
2019-03-24T06:27:29.406Z,5.56
2019-03-24T06:29:59.787Z,5.67
2019-03-24T06:32:30.648Z,5.78
2019-03-24T06:35:01.582Z,5.76
2019-03-24T06:37:32.408Z,5.95
2019-03-24T06:40:03.269Z,6.04
2019-03-24T06:42:34.192Z,6.10
2019-03-24T06:45:06.515Z,6.14
2019-03-24T06:47:37.402Z,6.37
2019-03-24T06:50:12.038Z,6.35
2019-03-24T06:52:42.601Z,6.40
2019-03-24T06:55:13.167Z,6.39
2019-03-24T06:57:44.000Z,6.58
2019-03-24T07:00:16.132Z,6.54
2019-03-24T07:02:46.511Z,6.74
2019-03-24T07:05:17.187Z,6.74
2019-03-24T07:07:47.972Z,6.83
2019-03-24T07:10:19.116Z,6.87
2019-03-24T07:12:51.480Z,6.80
2019-03-24T07:15:22.725Z,6.98
2019-03-24T07:17:53.804Z,6.95
2019-03-24T07:20:26.242Z,7.00
2019-03-24T07:22:57.591Z,6.95
2019-03-24T07:25:29.586Z,7.02
2019-03-24T07:28:00.281Z,7.08
2019-03-24T07:30:32.302Z,7.13
2019-03-24T07:33:03.605Z,7.29
2019-03-24T07:35:35.922Z,7.40
2019-03-24T07:38:07.842Z,7.38
2019-03-24T07:40:40.224Z,7.42
2019-03-24T07:43:11.153Z,7.48
2019-03-24T07:45:41.625Z,7.55
2019-03-24T07:48:18.954Z,7.53
2019-03-24T07:50:46.423Z,7.70
2019-03-24T07:53:18.766Z,7.65
2019-03-24T07:55:49.560Z,7.79
2019-03-24T07:58:20.589Z,7.62
2019-03-24T08:00:51.409Z,7.66
2019-03-24T08:03:22.270Z,7.71
2019-03-24T08:05:54.391Z,7.68
2019-03-24T08:08:27.657Z,7.59
2019-03-24T08:10:57.743Z,7.73
2019-03-24T08:13:28.569Z,7.62
2019-03-24T08:16:02.342Z,7.42
2019-03-24T08:18:35.470Z,7.53
2019-03-24T08:21:06.406Z,7.68
2019-03-24T08:23:37.300Z,7.66
2019-03-24T08:26:10.731Z,7.76
2019-03-24T08:28:41.561Z,7.80
2019-03-24T08:31:14.811Z,7.80
2019-03-24T08:33:44.885Z,7.86
2019-03-24T08:36:15.746Z,7.88
2019-03-24T08:38:46.787Z,7.90
2019-03-24T08:41:17.607Z,7.86
2019-03-24T08:43:48.445Z,7.90
2019-03-24T08:46:19.165Z,7.87
2019-03-24T08:48:49.966Z,8.04
2019-03-24T08:51:20.961Z,8.02
2019-03-24T08:53:51.809Z,8.24
2019-03-24T08:56:22.504Z,8.16
2019-03-24T08:58:53.520Z,8.08
2019-03-24T09:01:24.423Z,8.46
2019-03-24T09:03:55.329Z,8.28
2019-03-24T09:06:26.113Z,8.36
2019-03-24T09:08:57.033Z,8.34
2019-03-24T09:11:31.461Z,8.34
2019-03-24T09:14:00.411Z,8.35
2019-03-24T09:16:31.251Z,8.29
2019-03-24T09:19:01.708Z,8.34
2019-03-24T09:21:32.639Z,8.40
2019-03-24T09:24:03.555Z,8.38
2019-03-24T09:26:34.115Z,8.46
2019-03-24T09:29:05.048Z,8.55
2019-03-24T09:31:35.544Z,8.46
2019-03-24T09:34:06.126Z,8.48
2019-03-24T09:36:36.940Z,8.46
2019-03-24T09:39:07.784Z,8.46
2019-03-24T09:41:38.721Z,8.79
2019-03-24T09:44:09.557Z,8.78
2019-03-24T09:46:40.363Z,8.84
2019-03-24T09:49:11.129Z,8.95
2019-03-24T09:51:42.097Z,8.92
2019-03-24T09:54:13.018Z,9.02
2019-03-24T09:56:43.580Z,8.99
2019-03-24T09:59:14.487Z,9.06
2019-03-24T10:01:45.426Z,9.09
2019-03-24T10:04:16.319Z,9.15
2019-03-24T10:06:47.353Z,9.14
2019-03-24T10:09:19.625Z,9.14
2019-03-24T10:11:52.318Z,9.22
2019-03-24T10:14:23.356Z,9.34
2019-03-24T10:16:55.835Z,9.21
2019-03-24T10:19:26.903Z,9.17
2019-03-24T10:21:59.688Z,9.27
2019-03-24T10:24:30.511Z,9.18
2019-03-24T10:27:01.394Z,9.24
2019-03-24T10:29:32.319Z,9.52
2019-03-24T10:32:02.934Z,9.58
2019-03-24T10:34:33.802Z,9.62
2019-03-24T10:37:04.673Z,9.70
2019-03-24T10:39:35.516Z,9.79
2019-03-24T10:42:06.365Z,9.74
2019-03-24T10:44:37.224Z,9.79
2019-03-24T10:47:08.147Z,9.99
2019-03-24T10:49:39.585Z,9.87
2019-03-24T10:52:10.619Z,9.96
2019-03-24T10:54:41.472Z,10.03
2019-03-24T10:57:12.204Z,10.07
2019-03-24T10:59:43.059Z,10.04
2019-03-24T11:02:13.682Z,10.18
2019-03-24T11:04:44.535Z,10.22
2019-03-24T11:07:15.365Z,10.24
2019-03-24T11:09:46.308Z,10.20
2019-03-24T11:12:21.332Z,10.22
2019-03-24T11:14:52.190Z,10.44
2019-03-24T11:17:23.050Z,10.24
2019-03-24T11:19:54.151Z,10.30
2019-03-24T11:22:24.980Z,10.62
2019-03-24T11:24:55.817Z,10.57
2019-03-24T11:27:26.667Z,10.63
2019-03-24T11:30:00.333Z,10.78
2019-03-24T11:32:31.311Z,10.85
2019-03-24T11:35:02.341Z,11.00
2019-03-24T11:37:33.174Z,11.14
2019-03-24T11:40:05.491Z,11.23
2019-03-24T11:42:36.432Z,11.30
2019-03-24T11:45:08.173Z,11.15
2019-03-24T11:47:39.056Z,11.04
2019-03-24T11:50:10.579Z,10.87
2019-03-24T11:52:41.809Z,10.87
2019-03-24T11:55:13.393Z,10.72
2019-03-24T11:57:44.366Z,10.66
2019-03-24T12:00:17.592Z,10.71
2019-03-24T12:02:48.400Z,10.77
2019-03-24T12:05:19.227Z,10.93
2019-03-24T12:07:50.211Z,10.94
2019-03-24T12:10:20.906Z,11.13
2019-03-24T12:12:51.377Z,11.23
2019-03-24T12:15:22.342Z,11.49
2019-03-24T12:17:53.449Z,11.52
2019-03-24T12:20:25.941Z,11.54
2019-03-24T12:22:56.751Z,11.51
2019-03-24T12:25:27.557Z,11.75
2019-03-24T12:28:00.105Z,11.92
2019-03-24T12:30:30.865Z,12.11
2019-03-24T12:33:03.254Z,12.42
2019-03-24T12:35:34.096Z,12.44
2019-03-24T12:38:05.218Z,12.60
2019-03-24T12:40:36.084Z,12.68
2019-03-24T12:43:06.932Z,12.74
2019-03-24T12:45:38.429Z,12.60
2019-03-24T12:48:08.954Z,12.48
2019-03-24T12:50:42.118Z,12.24
2019-03-24T12:53:14.121Z,12.12
2019-03-24T12:55:46.431Z,11.99
2019-03-24T12:58:19.986Z,12.09
2019-03-24T13:00:53.487Z,11.76
2019-03-24T13:03:24.341Z,12.13
2019-03-24T13:05:55.099Z,12.02
2019-03-24T13:08:25.940Z,12.22
2019-03-24T13:10:56.768Z,12.47
2019-03-24T13:13:27.238Z,12.18
2019-03-24T13:15:58.043Z,12.44
2019-03-24T13:18:28.999Z,12.57
2019-03-24T13:20:59.906Z,12.60
2019-03-24T13:23:30.623Z,13.00
2019-03-24T13:26:01.472Z,12.75
2019-03-24T13:28:32.450Z,12.68
2019-03-24T13:31:04.786Z,12.73
2019-03-24T13:33:35.629Z,12.69
2019-03-24T13:36:08.489Z,12.70
2019-03-24T13:38:42.399Z,12.69
2019-03-24T13:41:13.133Z,12.95
2019-03-24T13:43:43.980Z,12.75
2019-03-24T13:46:15.449Z,12.86
2019-03-24T13:48:46.294Z,12.22
2019-03-24T13:51:16.740Z,12.20
2019-03-24T13:53:47.139Z,12.10
2019-03-24T13:56:18.055Z,12.14
2019-03-24T13:58:48.815Z,12.21
2019-03-24T14:01:20.279Z,12.20
2019-03-24T14:03:52.910Z,12.26
2019-03-24T14:06:24.181Z,12.30
2019-03-24T14:08:55.135Z,12.09
2019-03-24T14:11:25.770Z,11.90
2019-03-24T14:13:56.621Z,12.05
2019-03-24T14:16:27.523Z,11.87
2019-03-24T14:18:58.260Z,11.95
2019-03-24T14:21:28.977Z,11.95
2019-03-24T14:23:59.795Z,11.70
2019-03-24T14:26:30.651Z,11.72
2019-03-24T14:29:01.109Z,11.76
2019-03-24T14:31:32.017Z,11.76
2019-03-24T14:34:02.856Z,11.62
2019-03-24T14:36:33.707Z,11.58
2019-03-24T14:39:05.570Z,11.56
2019-03-24T14:41:36.573Z,11.58
2019-03-24T14:44:07.451Z,11.41
2019-03-24T14:46:38.370Z,11.59
2019-03-24T14:49:09.065Z,11.38
2019-03-24T14:51:39.881Z,11.34
2019-03-24T14:54:10.689Z,11.19
2019-03-24T14:56:41.428Z,11.42
2019-03-24T14:59:12.369Z,10.95
2019-03-24T15:01:43.067Z,11.21
2019-03-24T15:04:17.026Z,11.16
2019-03-24T15:06:47.866Z,11.32
2019-03-24T15:09:18.938Z,10.92
2019-03-24T15:11:49.510Z,11.16
2019-03-24T15:14:20.383Z,11.12
2019-03-24T15:16:51.181Z,10.88
2019-03-24T15:19:22.170Z,10.72
2019-03-24T15:21:52.948Z,10.92
2019-03-24T15:24:23.762Z,10.72
2019-03-24T15:26:56.179Z,10.79
2019-03-24T15:29:26.989Z,10.56
2019-03-24T15:31:57.831Z,10.42
2019-03-24T15:34:28.688Z,10.50
2019-03-24T15:36:59.671Z,10.62
2019-03-24T15:39:30.477Z,10.83
2019-03-24T15:42:01.307Z,10.71
2019-03-24T15:44:32.146Z,10.56
2019-03-24T15:47:03.089Z,10.74
2019-03-24T15:49:33.794Z,10.51
2019-03-24T15:52:04.203Z,10.56
2019-03-24T15:54:34.962Z,10.74
2019-03-24T15:57:05.890Z,10.54
2019-03-24T15:59:37.670Z,10.54
2019-03-24T16:02:09.409Z,10.67
2019-03-24T16:04:40.314Z,10.48
2019-03-24T16:07:11.200Z,10.72
2019-03-24T16:09:42.183Z,10.63
2019-03-24T16:12:14.722Z,10.56
2019-03-24T16:14:45.557Z,10.64
2019-03-24T16:17:17.937Z,10.46
2019-03-24T16:19:50.286Z,10.53
2019-03-24T16:22:21.153Z,10.50
2019-03-24T16:24:54.395Z,10.53
2019-03-24T16:27:25.185Z,10.26
2019-03-24T16:29:56.111Z,10.47
2019-03-24T16:32:28.475Z,10.29
2019-03-24T16:34:59.208Z,10.18
2019-03-24T16:37:29.935Z,10.30
2019-03-24T16:40:02.409Z,10.18
2019-03-24T16:42:33.256Z,10.39
2019-03-24T16:45:05.123Z,10.39
2019-03-24T16:47:35.872Z,10.25
2019-03-24T16:50:07.915Z,10.13
2019-03-24T16:52:38.872Z,10.28
2019-03-24T16:55:33.222Z,10.18
2019-03-24T16:58:10.543Z,10.04
2019-03-24T17:00:41.388Z,10.02
2019-03-24T17:03:12.229Z,10.01
2019-03-24T17:05:43.046Z,9.84
2019-03-24T17:08:13.889Z,9.76
2019-03-24T17:10:46.589Z,9.86
2019-03-24T17:13:17.370Z,9.65
2019-03-24T17:15:47.847Z,9.58
2019-03-24T17:18:18.662Z,9.60
2019-03-24T17:20:49.190Z,9.65
2019-03-24T17:23:19.958Z,9.50
2019-03-24T17:25:50.793Z,9.34
2019-03-24T17:28:21.712Z,9.54
2019-03-24T17:30:52.512Z,9.54
2019-03-24T17:33:23.486Z,9.48
2019-03-24T17:35:54.310Z,9.40
2019-03-24T17:38:25.163Z,9.41
2019-03-24T17:40:56.012Z,9.34
2019-03-24T17:43:27.002Z,9.27
2019-03-24T17:45:57.936Z,9.20
2019-03-24T17:48:28.675Z,9.24
2019-03-24T17:50:59.442Z,9.20
2019-03-24T17:53:30.343Z,9.09
2019-03-24T17:56:04.474Z,9.18
2019-03-24T17:58:35.333Z,9.15
2019-03-24T18:01:09.353Z,9.14
2019-03-24T18:03:40.199Z,9.10
2019-03-24T18:06:12.750Z,9.08
2019-03-24T18:08:43.612Z,9.13
2019-03-24T18:11:14.436Z,8.99
2019-03-24T18:13:45.260Z,9.02
2019-03-24T18:16:17.402Z,9.00
2019-03-24T18:18:48.376Z,8.94
2019-03-24T18:21:27.332Z,8.90
2019-03-24T18:23:59.695Z,8.81
2019-03-24T18:26:32.951Z,8.88
2019-03-24T18:29:06.496Z,8.84
2019-03-24T18:31:39.859Z,8.86
2019-03-24T18:34:10.755Z,8.88
2019-03-24T18:36:41.653Z,8.79
2019-03-24T18:39:12.182Z,8.80
2019-03-24T18:41:43.110Z,8.70
2019-03-24T18:44:13.963Z,8.68
2019-03-24T18:46:44.576Z,8.66
2019-03-24T18:49:15.320Z,8.62
2019-03-24T18:51:46.377Z,8.62
2019-03-24T18:54:17.176Z,8.52
2019-03-24T18:56:48.092Z,8.54
2019-03-24T18:59:20.635Z,8.50
2019-03-24T19:01:51.546Z,8.48
2019-03-24T19:04:23.813Z,8.54
2019-03-24T19:06:54.651Z,8.48
2019-03-24T19:09:25.507Z,8.47
2019-03-24T19:11:56.519Z,8.40
2019-03-24T19:14:27.477Z,8.46
2019-03-24T19:16:58.940Z,8.46
2019-03-24T19:19:29.925Z,8.48
2019-03-24T19:22:00.861Z,8.44
2019-03-24T19:24:31.722Z,8.40
2019-03-24T19:27:02.889Z,8.48
2019-03-24T19:29:33.718Z,8.50
2019-03-24T19:32:06.174Z,8.44
2019-03-24T19:34:38.491Z,8.32
2019-03-24T19:37:09.401Z,8.24
2019-03-24T19:39:41.715Z,8.30
2019-03-24T19:42:18.614Z,8.18
2019-03-24T19:44:47.911Z,8.16
2019-03-24T19:47:18.929Z,8.16
2019-03-24T19:49:56.165Z,8.10
2019-03-24T19:52:28.722Z,8.00
2019-03-24T19:55:01.130Z,8.04
2019-03-24T19:57:32.072Z,8.01
2019-03-24T20:00:06.170Z,8.02
2019-03-24T20:02:37.926Z,7.94
2019-03-24T20:05:08.863Z,7.88
2019-03-24T20:07:47.579Z,8.11
2019-03-24T20:10:12.469Z,7.98
2019-03-24T20:12:46.311Z,7.98
2019-03-24T20:15:17.509Z,7.91
2019-03-24T20:17:48.379Z,7.87
2019-03-24T20:20:18.972Z,7.83
2019-03-24T20:22:56.515Z,7.78
2019-03-24T20:25:25.556Z,7.71
2019-03-24T20:27:56.771Z,7.66
2019-03-24T20:30:27.696Z,7.73
2019-03-24T20:32:58.640Z,7.64
2019-03-24T20:35:34.391Z,7.64
2019-03-24T20:38:06.643Z,7.72
2019-03-24T20:40:37.495Z,7.62
2019-03-24T20:43:08.396Z,7.52
2019-03-24T20:45:39.312Z,7.46
2019-03-24T20:48:10.159Z,7.55
2019-03-24T20:50:41.015Z,7.52
2019-03-24T20:53:18.155Z,7.42
2019-03-24T20:55:46.983Z,7.36
2019-03-24T20:58:17.991Z,7.30
2019-03-24T21:00:50.624Z,7.32
2019-03-24T21:03:21.480Z,7.25
2019-03-24T21:05:52.043Z,7.34
2019-03-24T21:08:23.118Z,7.23
2019-03-24T21:10:54.015Z,7.35
2019-03-24T21:13:24.925Z,7.28
2019-03-24T21:15:55.829Z,7.30
2019-03-24T21:18:26.911Z,7.19
2019-03-24T21:20:57.703Z,7.21
2019-03-24T21:23:29.770Z,7.14
2019-03-24T21:26:03.804Z,7.14
2019-03-24T21:28:34.644Z,7.10
2019-03-24T21:31:05.605Z,7.08
2019-03-24T21:33:36.528Z,7.01
2019-03-24T21:36:08.661Z,6.92
2019-03-24T21:38:39.675Z,6.96
2019-03-24T21:41:10.462Z,6.84
2019-03-24T21:43:42.365Z,6.86
2019-03-24T21:46:13.204Z,6.82
2019-03-24T21:48:44.207Z,6.88
2019-03-24T21:51:15.147Z,6.89
2019-03-24T21:53:45.985Z,6.78
2019-03-24T21:56:25.566Z,6.88
2019-03-24T21:58:56.445Z,6.76
2019-03-24T22:01:27.314Z,6.84
2019-03-24T22:04:00.174Z,6.81
2019-03-24T22:06:31.075Z,6.84
2019-03-24T22:09:01.914Z,6.84
2019-03-24T22:11:36.872Z,6.81
2019-03-24T22:14:09.355Z,6.78
2019-03-24T22:16:41.485Z,6.80
2019-03-24T22:19:14.068Z,6.85
2019-03-24T22:21:46.357Z,6.80
2019-03-24T22:24:19.656Z,6.82
2019-03-24T22:26:50.501Z,6.84
2019-03-24T22:29:21.435Z,6.81
2019-03-24T22:31:52.443Z,6.88
2019-03-24T22:34:24.461Z,6.83
2019-03-24T22:36:57.175Z,6.84
2019-03-24T22:39:27.974Z,6.86
2019-03-24T22:41:58.806Z,6.79
2019-03-24T22:44:29.553Z,6.85
2019-03-24T22:47:00.383Z,6.84
2019-03-24T22:49:31.198Z,6.84
2019-03-24T22:52:07.128Z,6.78
2019-03-24T22:54:35.155Z,6.81
2019-03-24T22:57:06.584Z,6.78
2019-03-24T22:59:37.431Z,6.68
2019-03-24T23:02:08.371Z,6.70
2019-03-24T23:04:39.321Z,6.67
2019-03-24T23:07:10.407Z,6.62
2019-03-24T23:09:40.818Z,6.68
2019-03-24T23:12:11.826Z,6.66
2019-03-24T23:14:42.552Z,6.70
2019-03-24T23:17:13.392Z,6.70
2019-03-24T23:19:43.915Z,6.72
2019-03-24T23:22:14.753Z,6.78
2019-03-24T23:24:45.506Z,6.70
2019-03-24T23:27:16.397Z,6.71
2019-03-24T23:29:47.251Z,6.71
2019-03-24T23:32:18.104Z,6.69
2019-03-24T23:34:48.845Z,6.61
2019-03-24T23:37:19.685Z,6.60
2019-03-24T23:39:50.593Z,6.57
2019-03-24T23:42:21.399Z,6.56
2019-03-24T23:44:51.799Z,6.48
2019-03-24T23:47:22.703Z,6.63
2019-03-24T23:49:53.599Z,6.56
2019-03-24T23:52:24.731Z,6.58
2019-03-24T23:54:55.615Z,6.58
2019-03-24T23:57:26.131Z,6.60
2019-03-24T23:59:56.972Z,6.54
